FW5145 Weather Reports


Display with metric or nautical units.
time (UTC)temp
F
wind
direction
speed
MPH
gust
MPH
rain 1hr
in
rain 24hr
in
rain mn
in
humidity
%
barometer
mb
20260831004032 58 186 1.0 8.0 0.10 0.11 0.10 100 1007.0
20260831003534 58 0 2.0 11.0 0.10 0.11 0.10 100 1006.9
20260831003051 59 174 3.0 12.0 0.07 0.08 0.07 100 1006.8
20260831002531 60 265 3.0 12.0 0.05 0.07 0.05 100 1006.9
20260831002034 60 242 0.0 9.0 0.01 0.03 0.01 100 1006.9
20260831001544 60 0 1.0 9.0 0.01 0.03 0.01 100 1006.9
20260831001032 60 206 2.0 9.0 0.00 0.02 0.00 100 1007.1
20260831000532 60 166 0.0 7.0 0.00 0.02 0.00 100 1007.0
20260831000046 60 0 0.0 7.0 0.00 0.01 0.00 100 1007.1
20260830235533 60 0 1.0 9.0 0.00 0.01 0.00 100 1007.2
20260830235036 59 185 0.0 9.0 0.00 0.01 0.00 100 1007.0
20260830234551 59 0 0.0 5.0 0.00 0.01 0.00 100 1007.2
20260830234031 59 183 0.0 8.0 0.00 0.01 0.00 100 1007.1
20260830233531 59 0 0.0 8.0 0.00 0.01 0.00 100 1007.2
20260830233057 59 0 1.0 8.0 0.00 0.01 0.00 100 1007.3
20260830232533 59 0 0.0 2.0 0.00 0.01 0.00 100 1007.3
20260830232032 59 0 0.0 6.0 0.00 0.01 0.00 100 1007.4
20260830231547 59 0 0.0 6.0 0.00 0.01 0.00 100 1007.4
20260830231033 59 185 0.0 5.0 0.00 0.01 0.00 100 1007.5
20260830230533 59 211 0.0 5.0 0.00 0.01 0.00 100 1007.6
20260830230046 59 0 0.0 7.0 0.00 0.01 0.00 100 1007.6
20260830225532 59 61 1.0 7.0 0.00 0.01 0.01 100 1007.7
20260830225031 59 0 0.0 5.0 0.00 0.01 0.01 100 1007.7
20260830224546 59 236 0.0 6.0 0.00 0.01 0.01 100 1007.8
20260830224033 59 0 0.0 6.0 0.00 0.01 0.01 100 1007.8
20260830223628 59 265 0.0 7.0 0.00 0.01 0.01 100 1007.9
20260830223055 59 186 0.0 7.0 0.00 0.01 0.01 100 1007.9
20260830222533 59 229 0.0 8.0 0.00 0.01 0.01 100 1007.8
20260830222033 59 0 0.0 8.0 0.00 0.01 0.01 100 1007.9
20260830221554 59 242 1.0 6.0 0.00 0.01 0.01 100 1008.0
20260830221031 59 245 0.0 6.0 0.00 0.01 0.01 100 1008.1
20260830220534 59 257 0.0 6.0 0.00 0.01 0.01 100 1008.1
20260830220100 59 0 0.0 5.0 0.00 0.01 0.01 100 1008.0
20260830215532 60 217 0.0 10.0 0.00 0.01 0.01 100 1008.1
20260830215034 60 249 1.0 10.0 0.00 0.01 0.01 100 1008.1
20260830214554 60 251 1.0 11.0 0.00 0.01 0.01 100 1008.2
20260830214033 60 0 1.0 11.0 0.01 0.01 0.01 100 1008.2
20260830213534 60 258 2.0 10.0 0.01 0.01 0.01 100 1008.2
20260830213101 60 0 2.0 10.0 0.01 0.01 0.01 100 1008.1
20260830212532 60 250 3.0 11.0 0.01 0.01 0.01 100 1008.0
20260830212032 60 243 4.0 11.0 0.01 0.01 0.01 100 1008.0
20260830211556 61 219 0.0 8.0 0.01 0.01 0.01 100 1008.0
20260830211032 61 231 2.0 8.0 0.01 0.01 0.01 100 1007.9
20260830210533 61 216 1.0 9.0 0.01 0.01 0.01 100 1007.8
20260830210103 62 171 2.0 9.0 0.01 0.01 0.01 100 1007.9
20260830205531 62 263 2.0 9.0 0.01 0.01 0.01 100 1007.9
20260830205031 63 207 1.0 5.0 0.01 0.01 0.01 100 1008.0
20260830204550 63 254 0.0 7.0 0.00 0.00 0.00 100 1007.9
20260830204032 63 0 1.0 7.0 0.00 0.00 0.00 100 1007.8
20260830203532 63 0 0.0 6.0 0.00 0.00 0.00 100 1007.9
20260830203100 63 304 0.0 4.0 0.00 0.00 0.00 100 1008.0
20260830202532 63 0 0.0 2.0 0.00 0.00 0.00 100 1008.0
20260830202033 63 0 0.0 2.0 0.00 0.00 0.00 100 1007.9
20260830201556 63 0 0.0 2.0 0.00 0.00 0.00 100 1007.9
20260830201034 63 0 0.0 0.0 0.00 0.00 0.00 100 1007.9
20260830200534 63 0 0.0 0.0 0.00 0.00 0.00 100 1008.0
20260830200055 63 0 0.0 0.0 0.00 0.00 0.00 100 1008.3
20260830195531 63 0 0.0 0.0 0.00 0.00 0.00 100 1008.2
20260830195032 63 0 0.0 0.0 0.00 0.00 0.00 100 1008.2
20260830194601 63 0 0.0 0.0 0.00 0.00 0.00 100 1008.3
20260830194033 63 0 0.0 0.0 0.00 0.00 0.00 100 1008.3
20260830193531 63 0 0.0 0.0 0.00 0.00 0.00 100 1008.3
20260830193046 63 0 0.0 0.0 0.00 0.00 0.00 100 1008.4
20260830192531 63 0 0.0 0.0 0.00 0.00 0.00 100 1008.4
20260830192031 64 0 0.0 0.0 0.00 0.00 0.00 100 1008.3
20260830191601 64 0 0.0 0.0 0.00 0.00 0.00 100 1008.5
20260830191034 64 0 0.0 4.0 0.00 0.00 0.00 100 1008.6
20260830190531 64 0 0.0 4.0 0.00 0.00 0.00 100 1008.5
20260830190049 64 0 0.0 4.0 0.00 0.00 0.00 100 1008.6
20260830185534 64 0 0.0 4.0 0.00 0.00 0.00 100 1008.6
20260830185033 64 182 0.0 5.0 0.00 0.00 0.00 100 1008.6
20260830184547 64 0 0.0 5.0 0.00 0.00 0.00 100 1008.7
20260830184031 64 0 0.0 4.0 0.00 0.00 0.00 100 1008.6
20260830183531 64 197 0.0 8.0 0.00 0.00 0.00 100 1008.5
20260830183051 64 0 1.0 8.0 0.00 0.00 0.00 100 1008.5
20260830182531 64 267 1.0 7.0 0.00 0.00 0.00 100 1008.6
20260830182032 64 113 0.0 7.0 0.00 0.00 0.00 100 1008.7
20260830181548 64 0 1.0 10.0 0.00 0.00 0.00 100 1008.6
20260830181033 64 153 1.0 10.0 0.00 0.00 0.00 100 1008.7
20260830180532 65 203 3.0 10.0 0.00 0.00 0.00 100 1008.7
20260830180047 65 0 0.0 9.0 0.00 0.00 0.00 100 1008.8
20260830175531 65 0 2.0 10.0 0.00 0.00 0.00 100 1008.8
20260830175031 65 244 2.0 10.0 0.00 0.00 0.00 100 1009.0
20260830174557 65 263 3.0 10.0 0.00 0.00 0.00 100 1009.0
20260830174030 66 180 2.0 10.0 0.00 0.00 0.00 100 1008.9
20260830173530 66 228 1.0 9.0 0.00 0.00 0.00 100 1008.9
20260830173048 67 229 2.0 6.0 0.00 0.00 0.00 100 1009.0
20260830172532 67 0 0.0 7.0 0.00 0.00 0.00 100 1009.0
20260830172032 67 267 2.0 7.0 0.00 0.00 0.00 100 1009.0
20260830171555 67 202 1.0 10.0 0.00 0.00 0.00 100 1008.8
20260830171031 67 0 1.0 10.0 0.00 0.00 0.00 100 1008.8
20260830170531 67 163 0.0 6.0 0.00 0.00 0.00 100 1009.0
20260830170045 67 0 1.0 7.0 0.00 0.00 0.00 100 1008.9
20260830165533 67 261 2.0 7.0 0.00 0.02 0.00 100 1009.0
20260830165035 67 92 2.0 10.0 0.00 0.02 0.00 100 1009.0
20260830164549 67 271 1.0 10.0 0.00 0.02 0.00 100 1009.0
20260830164032 67 287 3.0 8.0 0.00 0.02 0.00 100 1009.1
20260830163532 68 0 1.0 5.0 0.00 0.02 0.00 100 1009.1
20260830163055 68 267 1.0 7.0 0.00 0.02 0.00 100 1009.3
20260830162532 68 182 1.0 11.0 0.00 0.02 0.00 100 1009.4
20260830162031 68 198 2.0 11.0 0.00 0.02 0.00 100 1009.4
20260830161556 68 182 1.0 8.0 0.00 0.02 0.00 100 1009.5
20260830161031 68 167 2.0 10.0 0.00 0.02 0.00 100 1009.4
20260830160531 68 210 2.0 10.0 0.00 0.02 0.00 100 1009.4
20260830155530 68 0 2.0 10.0 0.00 0.03 0.00 100 1009.5
20260830155031 68 262 3.0 10.0 0.00 0.03 0.00 100 1009.4
20260830154600 68 187 1.0 8.0 0.00 0.03 0.00 100 1009.5
20260830154034 68 234 2.0 8.0 0.00 0.03 0.00 100 1009.6
20260830153532 68 199 2.0 13.0 0.00 0.03 0.00 100 1009.7
20260830153049 68 182 4.0 13.0 0.00 0.03 0.00 100 1009.7
20260830152533 68 213 2.0 12.0 0.00 0.03 0.00 100 1009.8
20260830152032 68 132 3.0 12.0 0.00 0.03 0.00 100 1009.8
20260830151558 68 243 3.0 10.0 0.00 0.03 0.00 100 1009.9
20260830151032 68 225 2.0 11.0 0.00 0.03 0.00 100 1009.9
20260830150534 68 0 1.0 12.0 0.00 0.03 0.00 100 1009.8
20260830150055 68 254 3.0 12.0 0.00 0.03 0.00 100 1009.9
20260830145531 68 250 2.0 9.0 0.00 0.14 0.00 100 1010.0
20260830145033 68 0 3.0 11.0 0.00 0.14 0.00 100 1009.9
20260830144602 68 231 2.0 11.0 0.00 0.14 0.00 100 1010.0
20260830144034 68 189 3.0 9.0 0.00 0.14 0.00 100 1010.1
20260830143531 68 213 3.0 9.0 0.00 0.14 0.00 100 1010.0
20260830143051 68 230 3.0 9.0 0.00 0.14 0.00 100 1010.0
20260830142534 68 167 2.0 9.0 0.00 0.14 0.00 100 1010.1
20260830142033 68 263 1.0 9.0 0.00 0.14 0.00 100 1010.1
20260830141554 68 198 2.0 10.0 0.00 0.14 0.00 100 1010.1
20260830141036 68 0 2.0 10.0 0.00 0.14 0.00 100 1010.3
20260830140532 68 182 2.0 10.0 0.00 0.14 0.00 100 1010.2
20260830140055 68 0 1.0 8.0 0.00 0.14 0.00 100 1010.3
20260830135535 67 0 2.0 8.0 0.00 0.14 0.00 100 1010.4
20260830135034 67 176 1.0 8.0 0.00 0.14 0.00 100 1010.2
20260830134606 68 165 2.0 8.0 0.00 0.14 0.00 100 1010.4
20260830134033 68 0 0.0 7.0 0.00 0.14 0.00 100 1010.3
20260830133534 68 0 0.0 6.0 0.00 0.14 0.00 100 1010.3
20260830133046 68 237 0.0 8.0 0.00 0.14 0.00 100 1010.3
20260830132643 68 223 1.0 9.0 0.00 0.14 0.00 100 1010.5
20260830132034 67 200 3.0 10.0 0.00 0.14 0.00 100 1010.5
20260830131557 68 199 4.0 10.0 0.00 0.14 0.00 100 1010.4
20260830131033 68 0 1.0 10.0 0.00 0.14 0.00 100 1010.5
20260830130533 67 251 1.0 10.0 0.00 0.14 0.00 100 1010.7
20260830130104 67 238 2.0 10.0 0.00 0.14 0.00 100 1010.6
20260830125532 67 0 2.0 10.0 0.00 0.16 0.00 100 1010.7
20260830125035 67 0 1.0 10.0 0.00 0.16 0.00 100 1010.7
20260830124547 68 177 0.0 7.0 0.00 0.16 0.00 100 1010.7
20260830124034 67 0 0.0 2.0 0.00 0.16 0.00 100 1010.7
20260830123538 67 0 0.0 5.0 0.00 0.16 0.00 100 1010.6
20260830123059 67 0 0.0 5.0 0.00 0.16 0.00 100 1010.7
20260830122535 67 0 0.0 8.0 0.00 0.16 0.00 100 1010.8
20260830122038 67 0 1.0 8.0 0.00 0.16 0.00 100 1010.8
20260830121602 68 150 2.0 7.0 0.00 0.16 0.00 100 1010.8
20260830121033 68 0 0.0 10.0 0.00 0.16 0.00 100 1010.8
20260830120536 68 255 0.0 10.0 0.00 0.16 0.00 100 1010.8
20260830120059 68 0 0.0 8.0 0.00 0.16 0.00 100 1010.8
20260830115533 68 0 1.0 8.0 0.00 0.29 0.00 100 1010.7
20260830115033 68 218 0.0 8.0 0.00 0.29 0.00 100 1010.8
20260830114606 68 180 2.0 8.0 0.00 0.29 0.00 100 1010.8
20260830114032 68 0 0.0 8.0 0.00 0.29 0.00 100 1010.8
20260830113536 67 0 0.0 8.0 0.00 0.29 0.00 100 1010.7
20260830113048 67 0 2.0 8.0 0.00 0.29 0.00 100 1010.7
20260830112533 67 235 0.0 5.0 0.00 0.29 0.00 100 1010.8
20260830112036 67 0 0.0 6.0 0.00 0.29 0.00 100 1010.7
20260830111546 67 0 0.0 6.0 0.00 0.29 0.00 100 1010.8
20260830111036 67 259 0.0 6.0 0.00 0.29 0.00 100 1010.9
20260830110536 67 0 1.0 4.0 0.00 0.29 0.00 100 1011.0
20260830110047 67 0 0.0 2.0 0.00 0.29 0.00 100 1011.1
20260830105534 67 0 0.0 6.0 0.00 0.39 0.00 100 1011.0
20260830105032 67 290 0.0 6.0 0.00 0.39 0.00 100 1011.1
20260830104551 67 0 0.0 7.0 0.00 0.39 0.00 100 1011.1
20260830104035 67 238 0.0 7.0 0.00 0.39 0.00 100 1011.2
20260830103533 68 213 2.0 8.0 0.00 0.39 0.00 100 1011.1
20260830103050 68 0 0.0 9.0 0.00 0.39 0.00 100 1011.2
20260830102539 68 279 3.0 10.0 0.00 0.39 0.00 100 1011.2
20260830102032 68 156 3.0 10.0 0.00 0.39 0.00 100 1011.3
20260830101546 68 290 1.0 6.0 0.00 0.39 0.00 100 1011.2
20260830101035 68 0 0.0 6.0 0.00 0.39 0.00 100 1011.1
20260830100534 67 196 1.0 6.0 0.00 0.39 0.00 100 1011.2
20260830100055 67 242 0.0 6.0 0.00 0.39 0.00 100 1011.2
20260830095532 67 0 0.0 4.0 0.00 0.44 0.00 100 1011.2
20260830095032 66 0 0.0 7.0 0.00 0.44 0.00 100 1011.2
20260830094548 66 0 1.0 7.0 0.00 0.44 0.00 100 1011.3
20260830094036 66 194 2.0 8.0 0.00 0.44 0.00 100 1011.3
20260830093535 66 248 2.0 8.0 0.00 0.44 0.00 100 1011.3
20260830093054 66 0 1.0 8.0 0.00 0.44 0.00 100 1011.2
20260830092532 66 0 1.0 7.0 0.00 0.44 0.00 100 1011.2
20260830092033 66 0 1.0 7.0 0.00 0.44 0.00 100 1011.2
20260830091551 65 0 0.0 7.0 0.00 0.44 0.00 100 1011.3
20260830091032 65 0 0.0 7.0 0.00 0.44 0.00 100 1011.4
20260830090536 65 0 0.0 6.0 0.00 0.44 0.00 100 1011.4
20260830090105 65 246 1.0 8.0 0.00 0.44 0.00 100 1011.5
20260830085535 65 0 0.0 8.0 0.00 0.48 0.00 100 1011.5
20260830085037 64 196 2.0 10.0 0.00 0.48 0.00 100 1011.5
20260830084556 64 193 3.0 10.0 0.00 0.48 0.00 100 1011.5
20260830084035 64 267 2.0 9.0 0.00 0.48 0.00 100 1011.4
20260830083532 64 0 2.0 8.0 0.00 0.48 0.00 100 1011.5
20260830083052 64 196 1.0 8.0 0.00 0.48 0.00 100 1011.4
20260830082532 63 237 1.0 8.0 0.00 0.48 0.00 100 1011.4
20260830082036 63 0 1.0 9.0 0.00 0.48 0.00 100 1011.4
20260830081548 63 219 3.0 9.0 0.00 0.48 0.00 100 1011.3
20260830081039 63 232 2.0 8.0 0.00 0.48 0.00 100 1011.4
20260830080535 63 167 1.0 8.0 0.00 0.48 0.00 100 1011.3
20260830080056 62 249 1.0 8.0 0.00 0.48 0.00 100 1011.3
20260830075535 62 243 3.0 8.0 0.00 0.50 0.00 100 1011.3
20260830075035 62 0 0.0 9.0 0.00 0.50 0.00 100 1011.3
20260830074558 61 237 2.0 9.0 0.00 0.50 0.00 100 1011.1
20260830074034 61 0 1.0 9.0 0.00 0.50 0.00 100 1011.2
20260830073536 61 238 1.0 8.0 0.00 0.50 0.00 100 1011.3
20260830073050 61 257 2.0 8.0 0.00 0.50 0.00 100 1011.2
20260830072536 60 190 2.0 7.0 0.00 0.50 0.00 100 1011.2
20260830072033 60 0 1.0 10.0 0.00 0.50 0.00 100 1011.3
20260830071544 60 239 2.0 10.0 0.00 0.50 0.00 100 1011.1
20260830071034 60 171 0.0 11.0 0.00 0.50 0.00 100 1011.3
20260830070533 59 262 2.0 11.0 0.00 0.50 0.00 100 1011.1
20260830070055 59 198 1.0 8.0 0.00 0.50 0.00 100 1011.0
20260830065533 59 240 2.0 8.0 0.00 0.50 0.00 100 1011.0
20260830065032 59 240 2.0 7.0 0.00 0.50 0.00 100 1011.0
20260830064549 59 0 0.0 7.0 0.00 0.50 0.00 100 1010.9
20260830064032 59 202 2.0 7.0 0.00 0.50 0.00 100 1010.8
20260830063532 58 240 1.0 7.0 0.00 0.50 0.00 100 1010.8
20260830063105 58 0 0.0 6.0 0.00 0.50 0.00 100 1010.7
20260830062537 58 232 0.0 4.0 0.00 0.50 0.00 100 1010.8
20260830062035 58 0 0.0 5.0 0.00 0.50 0.00 100 1010.8
20260830061600 58 248 1.0 5.0 0.00 0.50 0.00 100 1010.6
20260830061035 59 255 1.0 6.0 0.00 0.50 0.00 100 1010.6
20260830060532 59 0 1.0 9.0 0.00 0.50 0.00 100 1010.6
20260830060045 59 0 2.0 9.0 0.00 0.50 0.00 100 1010.6
20260830055536 59 244 2.0 9.0 0.00 0.50 0.00 100 1010.4
20260830055036 59 0 1.0 8.0 0.00 0.50 0.00 100 1010.3
20260830054600 59 267 1.0 9.0 0.00 0.50 0.00 100 1010.3
20260830054039 59 231 1.0 9.0 0.00 0.50 0.00 100 1010.3
20260830053532 59 263 3.0 9.0 0.00 0.50 0.00 100 1010.3
20260830053047 59 0 3.0 8.0 0.00 0.50 0.00 100 1010.3
20260830052532 59 246 1.0 9.0 0.00 0.50 0.00 100 1010.2
20260830052035 59 265 1.0 9.0 0.00 0.50 0.00 100 1010.2
20260830051545 59 239 3.0 9.0 0.00 0.50 0.00 100 1010.2
20260830051036 59 161 0.0 5.0 0.00 0.50 0.00 100 1010.1
20260830050536 59 238 2.0 5.0 0.00 0.50 0.00 100 1010.1
20260830045535 59 243 0.0 7.0 0.00 0.50 0.00 100 1010.1
20260830045038 59 272 0.0 9.0 0.00 0.50 0.00 100 1010.1
20260830044603 59 167 2.0 9.0 0.00 0.50 0.00 100 1010.0
20260830044034 59 244 0.0 7.0 0.00 0.50 0.00 100 1010.0
20260830043532 59 0 1.0 8.0 0.00 0.50 0.00 100 1010.1
20260830043047 59 246 0.0 8.0 0.00 0.50 0.00 100 1010.0
20260830042536 59 0 1.0 8.0 0.00 0.50 0.00 100 1009.9
20260830042033 59 0 2.0 8.0 0.00 0.50 0.00 100 1009.8
20260830041647 59 232 0.0 9.0 0.00 0.50 0.00 100 1009.7
20260830041036 59 0 1.0 9.0 0.00 0.50 0.00 100 1009.7
20260830040534 59 244 1.0 6.0 0.00 0.50 0.00 100 1009.6
20260830040057 59 251 0.0 9.0 0.00 0.50 0.00 100 1009.5
20260830035535 59 0 1.0 9.0 0.00 0.50 0.00 100 1009.5
20260830035032 59 0 1.0 8.0 0.00 0.50 0.00 100 1009.4
20260830034605 59 252 0.0 7.0 0.00 0.50 0.00 100 1009.4
20260830034035 59 246 0.0 5.0 0.00 0.50 0.00 100 1009.3
20260830033536 59 259 1.0 8.0 0.00 0.50 0.00 100 1009.4
20260830033057 59 234 1.0 8.0 0.00 0.50 0.00 100 1009.2
20260830032536 59 0 2.0 8.0 0.00 0.50 0.00 100 1009.1
20260830032032 59 252 1.0 9.0 0.00 0.50 0.00 100 1009.2
20260830031557 60 249 2.0 11.0 0.00 0.50 0.00 100 1009.2
20260830031033 60 232 1.0 11.0 0.00 0.50 0.00 100 1009.2
20260830030533 60 0 2.0 11.0 0.00 0.50 0.00 100 1009.0
20260830030104 60 198 0.0 8.0 0.00 0.50 0.00 100 1009.0
20260830025533 60 0 1.0 9.0 0.00 0.51 0.00 100 1009.0
20260830025032 60 252 1.0 9.0 0.00 0.51 0.00 100 1009.0
20260830024559 60 244 1.0 9.0 0.00 0.51 0.00 100 1008.9
20260830024031 60 251 2.0 10.0 0.00 0.51 0.00 100 1008.9
20260830023538 60 225 2.0 10.0 0.00 0.51 0.00 100 1008.8
20260830023053 60 221 2.0 11.0 0.00 0.51 0.00 100 1008.8
20260830022535 60 226 1.0 11.0 0.00 0.51 0.00 100 1008.7
20260830022035 60 242 2.0 11.0 0.00 0.51 0.00 100 1008.7
20260830021550 60 234 0.0 10.0 0.00 0.51 0.00 100 1008.6
20260830021031 60 0 2.0 10.0 0.00 0.51 0.00 100 1008.6
20260830020531 60 241 1.0 8.0 0.00 0.51 0.00 100 1008.5
20260830020108 60 234 2.0 9.0 0.00 0.51 0.00 100 1008.5
20260830015532 60 225 1.0 9.0 0.00 0.52 0.00 100 1008.5
20260830015032 60 254 1.0 10.0 0.00 0.52 0.00 100 1008.4
20260830014601 60 0 1.0 10.0 0.00 0.52 0.00 100 1008.5
20260830014035 60 232 1.0 10.0 0.00 0.52 0.00 100 1008.3
20260830013532 61 272 1.0 9.0 0.00 0.52 0.00 100 1008.3
20260830013107 61 229 2.0 8.0 0.00 0.52 0.00 100 1008.3
20260830012535 61 175 1.0 9.0 0.00 0.52 0.00 100 1008.2
20260830012032 61 229 3.0 13.0 0.00 0.52 0.00 100 1008.2
20260830011552 61 230 2.0 13.0 0.00 0.52 0.00 100 1008.1
20260830011032 61 0 3.0 13.0 0.00 0.52 0.00 100 1008.1
20260830010532 61 226 2.0 14.0 0.00 0.52 0.00 100 1008.1
20260830010057 61 227 3.0 14.0 0.00 0.52 0.00 100 1008.0
20260830005536 61 273 3.0 9.0 0.00 0.52 0.00 100 1007.9
20260830005035 61 236 4.0 9.0 0.00 0.52 0.00 100 1008.0
20260830004559 61 222 2.0 12.0 0.00 0.52 0.00 100 1007.8